Time;durP1;ratioP1;P1;durP2;ratioP2;P2;SDS_P1;SDS_P2;PMS_P1;PMS_P2;Temp;Humidity;BMP_temperature;BMP_pressure;BME280_temperature;BME280_humidity;BME280_pressure;Samples;Min_cycle;Max_cycle;Signal;HPM_P1;HPM_P2
2022/03/01 00:01:34;;;;;;;12.03;9.60;;;8.40;40.90;;;-142.21;42.38;112049.66;4989365;28;20447;-81
2022/03/01 00:04:01;;;;;;;10.97;9.60;;;8.40;40.70;;;-142.21;42.69;112049.66;4982460;28;20480;-80
2022/03/01 00:06:28;;;;;;;11.33;9.10;;;8.40;40.80;;;-142.21;42.84;112049.66;4981395;28;20974;-79
2022/03/01 00:08:56;;;;;;;11.70;8.93;;;8.30;40.60;;;-142.21;42.78;112049.66;4972204;28;20462;-79
2022/03/01 00:11:23;;;;;;;11.40;9.60;;;8.20;40.70;;;-142.21;43.37;112049.66;4976383;28;21006;-79
2022/03/01 00:13:51;;;;;;;11.33;8.83;;;8.30;40.70;;;-142.21;42.58;112049.66;4974330;28;20491;-80
2022/03/01 00:16:20;;;;;;;10.97;9.30;;;8.30;40.80;;;-142.21;42.95;112049.66;4975071;28;20856;-80
2022/03/01 00:18:49;;;;;;;10.20;9.10;;;8.30;40.80;;;-142.21;42.52;112049.66;4990709;28;20973;-80
2022/03/01 00:21:16;;;;;;;12.57;8.97;;;8.30;40.50;;;-142.21;41.85;112049.66;4984925;28;20445;-77
2022/03/01 00:23:46;;;;;;;11.80;9.00;;;8.30;40.40;;;-142.21;41.78;112049.66;4971690;28;20444;-80
2022/03/01 00:26:13;;;;;;;10.53;8.17;;;8.20;40.50;;;-142.21;42.04;112049.66;4989301;28;20451;-80
2022/03/01 00:28:41;;;;;;;12.60;8.37;;;8.20;40.40;;;-142.21;42.29;112049.66;4990707;28;21117;-80
2022/03/01 00:31:08;;;;;;;10.77;9.10;;;8.20;40.30;;;-142.21;41.88;112049.66;4978249;28;20509;-80
2022/03/01 00:33:35;;;;;;;12.10;8.70;;;8.20;40.30;;;-142.21;41.56;112049.66;4979344;28;20435;-80
2022/03/01 00:36:05;;;;;;;10.90;8.97;;;8.10;40.10;;;-142.21;41.67;112049.66;5018375;28;20497;-80
2022/03/01 00:41:14;;;;;;;11.13;8.47;;;8.10;40.00;;;-142.21;42.01;112049.66;5072211;28;20463;-78
2022/03/01 00:43:42;;;;;;;11.63;9.03;;;8.10;40.20;;;-142.21;41.81;112049.66;5064774;28;20448;-79
2022/03/01 00:46:09;;;;;;;12.00;9.13;;;8.00;40.20;;;-142.21;41.87;112049.66;5053338;28;20948;-81
2022/03/01 00:48:36;;;;;;;10.37;8.67;;;8.00;40.20;;;-142.21;41.62;112049.66;5051520;28;20445;-80
2022/03/01 00:51:05;;;;;;;11.00;8.07;;;8.00;40.20;;;-142.21;41.89;112049.66;5052810;28;20472;-80
2022/03/01 00:53:33;;;;;;;10.03;8.63;;;8.00;40.40;;;-142.21;41.95;112049.66;5068517;28;20470;-79
2022/03/01 00:56:04;;;;;;;12.60;8.27;;;7.90;40.70;;;-142.21;41.74;112049.66;5091788;28;20938;-78
2022/03/01 00:58:32;;;;;;;11.03;8.43;;;7.90;40.50;;;-142.21;41.55;112049.66;5051961;28;20526;-77
2022/03/01 01:00:59;;;;;;;9.07;7.60;;;7.90;40.10;;;-142.21;41.89;112049.66;5058871;28;20440;-80
2022/03/01 01:03:27;;;;;;;11.40;8.03;;;7.90;40.00;;;-142.21;41.41;112049.66;5073199;28;20939;-79
2022/03/01 01:05:57;;;;;;;11.33;7.97;;;7.90;40.00;;;-142.21;41.69;112049.66;5071288;28;20451;-80
2022/03/01 01:08:25;;;;;;;11.37;8.30;;;7.90;40.10;;;-142.21;41.30;112049.66;5081024;28;20478;-81
2022/03/01 01:11:03;;;;;;;9.93;8.07;;;7.90;39.80;;;-142.21;41.35;112049.66;5071612;28;20442;-79
2022/03/01 01:13:35;;;;;;;9.97;7.93;;;7.80;40.10;;;-142.21;41.60;112049.66;5086336;28;20447;-78
2022/03/01 01:16:09;;;;;;;11.10;8.23;;;7.70;40.10;;;-142.21;41.74;112049.66;5072362;28;20482;-78
2022/03/01 01:18:55;;;;;;;9.33;7.73;;;7.70;40.50;;;-142.21;41.21;112049.66;5071224;28;20821;-81
2022/03/01 01:24:45;;;;;;;10.33;7.00;;;7.70;40.00;;;-142.21;41.25;112049.66;5090486;28;20798;-80
2022/03/01 01:27:41;;;;;;;10.63;7.83;;;7.70;40.20;;;-142.21;41.56;112049.66;5051216;28;20443;-80
2022/03/01 01:30:14;;;;;;;13.43;8.77;;;7.70;40.10;;;-142.21;41.23;112049.66;5070952;28;20447;-80
2022/03/01 01:32:49;;;;;;;9.93;7.97;;;7.60;40.10;;;-142.21;41.33;112049.66;5085632;28;20451;-78
2022/03/01 01:35:26;;;;;;;10.27;8.00;;;7.60;40.10;;;-142.21;41.03;112049.66;5085425;28;20481;-78
2022/03/01 01:37:56;;;;;;;11.50;8.57;;;7.50;39.80;;;-142.21;41.84;112049.66;5085764;28;20468;-81
2022/03/01 01:40:30;;;;;;;12.30;8.23;;;7.50;40.10;;;-142.21;40.86;112049.66;5073887;28;20201;-80
2022/03/01 01:43:12;;;;;;;14.43;8.10;;;7.50;39.90;;;-142.21;40.85;112049.66;5079322;28;20615;-79
2022/03/01 01:45:46;;;;;;;10.40;7.50;;;7.60;39.80;;;-142.21;41.79;112049.66;5092191;28;20446;-80
2022/03/01 01:48:22;;;;;;;10.57;8.70;;;7.50;39.80;;;-142.21;41.33;112049.66;5083526;28;20432;-80
2022/03/01 01:51:01;;;;;;;11.43;8.50;;;7.40;40.10;;;-142.21;41.99;112049.66;5071694;28;20512;-78
2022/03/01 01:53:30;;;;;;;11.63;8.17;;;7.50;39.80;;;-142.21;41.12;112049.66;5067723;28;20481;-79
2022/03/01 01:56:04;;;;;;;11.67;8.33;;;7.40;39.80;;;-142.21;40.82;112049.66;5072389;28;20489;-80
2022/03/01 01:58:36;;;;;;;12.07;8.67;;;7.30;40.00;;;-142.21;41.67;112049.66;5079921;28;20541;-79
2022/03/01 02:01:10;;;;;;;12.10;8.47;;;7.40;40.10;;;-142.21;41.68;112049.66;5068945;28;20468;-81
2022/03/01 02:03:37;;;;;;;11.97;8.70;;;7.50;40.50;;;-142.21;41.27;112049.66;5072146;28;20443;-80
2022/03/01 02:06:05;;;;;;;11.50;7.70;;;7.50;39.80;;;-142.21;41.85;112049.66;5072902;28;20455;-80
2022/03/01 02:08:36;;;;;;;12.10;8.03;;;7.50;40.10;;;-142.21;42.39;112049.66;5079996;28;20442;-79
2022/03/01 02:11:05;;;;;;;12.60;8.33;;;7.60;40.20;;;-142.21;42.21;112049.66;5091385;28;20438;-80
2022/03/01 02:13:35;;;;;;;11.70;8.80;;;7.50;39.80;;;-142.21;42.16;112049.66;5092883;28;20450;-79
2022/03/01 02:16:05;;;;;;;9.70;7.50;;;7.50;39.80;;;-142.21;42.57;112049.66;5095564;28;20335;-80
2022/03/01 02:18:33;;;;;;;13.17;8.50;;;7.50;40.30;;;-142.21;42.17;112049.66;5085972;28;20478;-79
2022/03/01 02:21:01;;;;;;;10.80;7.97;;;7.40;40.00;;;-142.21;41.86;112049.66;5074843;28;20439;-79
2022/03/01 02:23:29;;;;;;;10.48;8.50;;;7.40;40.30;;;-142.21;42.31;112049.66;5075105;28;20454;-81
2022/03/01 02:25:56;;;;;;;9.23;7.33;;;7.30;40.00;;;-142.21;42.05;112049.66;5080807;28;20200;-79
2022/03/01 02:28:26;;;;;;;12.43;8.53;;;7.30;40.20;;;-142.21;42.17;112049.66;5085895;28;20530;-81
2022/03/01 02:30:55;;;;;;;11.27;8.50;;;7.20;40.20;;;-142.21;42.46;112049.66;5089829;28;20482;-78
2022/03/01 02:33:22;;;;;;;10.27;8.40;;;7.20;40.10;;;-142.21;42.21;112049.66;5083730;28;20529;-80
2022/03/01 02:35:50;;;;;;;12.00;8.90;;;7.00;40.40;;;-142.21;42.07;112049.66;5085820;28;20447;-80
2022/03/01 02:38:18;;;;;;;11.53;8.47;;;7.00;40.30;;;-142.21;42.10;112049.66;5078541;28;20224;-80
2022/03/01 02:40:46;;;;;;;12.27;8.80;;;6.90;40.70;;;-142.21;42.70;112049.66;5093475;28;20450;-80
2022/03/01 02:43:13;;;;;;;11.30;8.47;;;7.00;40.80;;;-142.21;42.61;112049.66;5079297;28;20466;-79
2022/03/01 02:45:43;;;;;;;12.53;8.63;;;7.10;40.80;;;-142.21;43.58;112049.66;5074354;28;20463;-80
2022/03/01 02:48:13;;;;;;;11.03;8.83;;;7.10;40.70;;;-142.21;43.40;112049.66;5087422;28;20450;-80
2022/03/01 02:51:35;;;;;;;10.90;8.37;;;7.10;40.60;;;-142.21;42.95;112049.66;5094836;28;20430;-79
2022/03/01 02:55:11;;;;;;;11.83;8.30;;;7.10;40.80;;;-142.21;43.79;112049.66;5025557;28;20485;-81
2022/03/01 03:11:57;;;;;;;11.70;9.05;;;6.20;42.80;;;-142.21;43.93;112049.66;5012100;28;20222;-79
2022/03/01 03:14:42;;;;;;;12.70;9.25;;;6.00;43.20;;;-142.21;44.50;112049.66;5028587;28;20237;-81
2022/03/01 03:17:55;;;;;;;12.50;8.93;;;6.00;43.10;;;-142.21;44.94;112049.66;5015997;28;20213;-79
2022/03/01 03:20:46;;;;;;;11.88;8.80;;;6.00;43.60;;;-142.21;44.47;112049.66;5018936;28;20211;-80
2022/03/01 03:23:13;;;;;;;16.17;9.60;;;6.10;43.50;;;-142.21;45.84;112049.66;5023189;28;20227;-80
2022/03/01 03:25:43;;;;;;;13.25;8.95;;;6.00;43.30;;;-142.21;44.37;112049.66;5014778;28;20195;-80
2022/03/01 03:28:11;;;;;;;12.15;9.30;;;5.90;43.30;;;-142.21;44.62;112049.66;5031409;28;20203;-80
2022/03/01 03:30:39;;;;;;;13.38;9.57;;;5.90;43.70;;;-142.21;44.92;112049.66;5062282;28;20270;-80
2022/03/01 03:33:06;;;;;;;12.30;9.32;;;5.90;43.50;;;-142.21;45.10;112049.66;5079347;28;20561;-81
2022/03/01 03:35:34;;;;;;;11.85;9.52;;;6.00;43.60;;;-142.21;45.62;112049.66;5093282;28;20236;-80
2022/03/01 03:38:07;;;;;;;12.70;9.77;;;6.10;44.10;;;-142.21;44.60;112049.66;5088856;28;20217;-81
2022/03/01 03:40:36;;;;;;;12.38;9.27;;;6.00;43.40;;;-142.21;45.72;112049.66;5074563;28;20190;-80
2022/03/01 03:43:04;;;;;;;12.43;9.38;;;6.00;43.50;;;-142.21;45.25;112049.66;5073401;28;20194;-80
2022/03/01 03:45:36;;;;;;;12.35;9.05;;;6.00;43.60;;;-142.21;45.44;112049.66;5053498;28;20204;-81
2022/03/01 03:48:04;;;;;;;11.70;8.60;;;6.00;43.60;;;-142.21;44.64;112049.66;5075543;28;20189;-80
2022/03/01 03:50:31;;;;;;;15.02;10.25;;;5.90;43.80;;;-142.21;45.33;112049.66;5093191;28;20239;-80
2022/03/01 03:52:59;;;;;;;14.70;9.95;;;5.90;43.80;;;-142.21;45.47;112049.66;5082502;28;20201;-78
2022/03/01 03:55:26;;;;;;;15.57;8.68;;;5.90;43.90;;;-142.21;44.99;112049.66;5073223;28;20284;-79
2022/03/01 03:57:54;;;;;;;14.95;8.90;;;5.80;43.80;;;-142.21;45.80;112049.66;5066633;28;20225;-79
2022/03/01 04:00:21;;;;;;;14.70;10.40;;;5.90;44.20;;;-142.21;46.06;112049.66;5052877;28;20233;-79
2022/03/01 04:02:51;;;;;;;14.73;9.45;;;5.90;44.10;;;-142.21;46.25;112049.66;5060978;28;20209;-79
2022/03/01 04:05:21;;;;;;;12.80;9.15;;;5.90;44.10;;;-142.21;45.76;112049.66;5073745;28;20287;-79
2022/03/01 04:07:50;;;;;;;12.95;9.15;;;5.90;44.60;;;-142.21;46.04;112049.66;5079540;28;20204;-81
2022/03/01 04:10:18;;;;;;;13.50;9.27;;;5.80;44.10;;;-142.21;45.95;112049.66;5087638;28;20290;-80
2022/03/01 04:12:46;;;;;;;14.10;8.95;;;5.60;44.20;;;-142.21;46.22;112049.66;5077305;28;20285;-78
2022/03/01 04:15:23;;;;;;;13.40;9.55;;;5.70;44.40;;;-142.21;46.29;112049.66;5078648;28;20228;-77
2022/03/01 04:18:12;;;;;;;12.40;9.27;;;5.60;44.40;;;-142.21;47.37;112049.66;5105637;28;20224;-77
2022/03/01 04:20:39;;;;;;;11.75;9.38;;;5.70;44.50;;;-142.21;46.50;112049.66;5096280;28;20209;-77
2022/03/01 04:23:08;;;;;;;12.00;9.27;;;5.60;44.70;;;-142.21;47.17;112049.66;5100668;28;20245;-78
2022/03/01 04:25:35;;;;;;;12.15;9.20;;;5.40;44.70;;;-142.21;47.03;112049.66;5092503;28;20205;-78
2022/03/01 04:28:03;;;;;;;13.07;9.77;;;5.30;45.00;;;-142.21;47.74;112049.66;5094326;28;20201;-77
2022/03/01 04:30:30;;;;;;;13.43;9.65;;;5.30;45.40;;;-142.21;47.18;112049.66;5095347;28;20193;-78
2022/03/01 04:32:59;;;;;;;12.93;9.27;;;5.30;45.20;;;-142.21;47.44;112049.66;5098540;28;20184;-78
2022/03/01 04:35:28;;;;;;;12.50;9.43;;;5.20;45.30;;;-142.21;48.08;112049.66;5100839;28;20228;-81
2022/03/01 04:37:56;;;;;;;13.70;9.40;;;5.20;45.40;;;-142.21;47.38;112049.66;5086778;28;20308;-76
2022/03/01 04:40:29;;;;;;;13.57;9.20;;;5.10;45.70;;;-142.21;47.51;112049.66;5074437;28;20288;-81
2022/03/01 04:42:57;;;;;;;13.52;9.80;;;5.00;46.10;;;-142.21;47.58;112049.66;5073008;28;20284;-80
2022/03/01 04:45:28;;;;;;;11.85;9.02;;;5.00;46.10;;;-142.21;47.71;112049.66;5072469;28;20205;-79
2022/03/01 04:47:55;;;;;;;12.65;8.85;;;4.90;46.20;;;-142.21;48.83;112049.66;5072696;28;20199;-79
2022/03/01 04:50:25;;;;;;;12.63;9.13;;;4.90;46.30;;;-142.21;47.61;112049.66;5072539;28;20271;-80
2022/03/01 04:52:58;;;;;;;12.85;9.45;;;5.00;46.40;;;-142.21;48.70;112049.66;5087672;28;20200;-78
2022/03/01 04:55:34;;;;;;;14.10;10.20;;;5.00;45.90;;;-142.21;49.23;112049.66;5072514;28;20197;-76
2022/03/01 04:58:17;;;;;;;11.82;9.45;;;5.20;46.20;;;-142.21;48.45;112049.66;5073018;28;20585;-80
2022/03/01 05:00:44;;;;;;;14.38;9.48;;;5.10;45.90;;;-142.21;48.47;112049.66;5092164;28;20285;-80
2022/03/01 05:03:19;;;;;;;14.07;9.55;;;5.00;45.90;;;-142.21;48.24;112049.66;5060484;28;20189;-79
2022/03/01 05:05:52;;;;;;;13.73;9.65;;;5.00;46.00;;;-142.21;49.34;112049.66;5077842;28;20598;-79
2022/03/01 05:08:37;;;;;;;13.80;10.00;;;5.10;46.00;;;-142.21;48.28;112049.66;5091606;28;20592;-80
2022/03/01 05:11:05;;;;;;;14.38;9.80;;;5.20;45.90;;;-142.21;48.88;112049.66;5061093;28;20243;-78
2022/03/01 05:13:35;;;;;;;10.68;8.82;;;5.20;45.80;;;-142.21;48.97;112049.66;5074034;28;20208;-80
2022/03/01 05:16:02;;;;;;;12.55;9.55;;;5.30;45.60;;;-142.21;49.31;112049.66;5091309;28;20204;-80
2022/03/01 05:18:32;;;;;;;13.00;9.68;;;5.10;45.60;;;-142.21;50.11;112049.66;5076278;28;20258;-79
2022/03/01 05:21:00;;;;;;;14.85;9.93;;;5.10;46.00;;;-142.21;52.23;112049.66;5072059;28;20206;-79
2022/03/01 05:23:32;;;;;;;14.65;9.75;;;4.90;46.20;;;-142.21;50.30;112049.66;5089487;28;20292;-81
2022/03/01 05:26:06;;;;;;;14.48;10.13;;;4.90;46.40;;;-142.21;49.59;112049.66;5072560;28;20591;-80
2022/03/01 05:28:37;;;;;;;14.23;9.93;;;4.80;46.60;;;-142.21;51.02;112049.66;5073984;28;20189;-80
2022/03/01 05:31:05;;;;;;;14.52;9.73;;;4.60;47.10;;;-142.21;51.69;112049.66;5072081;28;20205;-79
2022/03/01 05:33:36;;;;;;;14.52;9.48;;;4.70;46.80;;;-142.21;52.33;112049.66;5073294;28;20197;-80
2022/03/01 05:36:14;;;;;;;12.73;9.77;;;4.70;46.90;;;-142.21;52.03;112049.66;5072326;28;20224;-80
2022/03/01 05:38:51;;;;;;;14.18;9.18;;;4.80;46.90;;;-142.21;51.88;112049.66;5075866;28;20205;-79
2022/03/01 05:41:20;;;;;;;13.15;9.80;;;4.80;46.60;;;-142.21;51.18;112049.66;5083277;28;20197;-78
2022/03/01 05:43:47;;;;;;;13.45;9.85;;;4.80;47.10;;;-142.21;52.18;112049.66;5077010;28;20857;-79
2022/03/01 05:46:15;;;;;;;13.75;9.63;;;4.70;47.10;;;-142.21;52.62;112049.66;5083232;28;20197;-76
2022/03/01 05:48:42;;;;;;;11.73;9.70;;;4.80;47.20;;;-142.21;52.23;112049.66;5075069;28;20535;-79
2022/03/01 05:51:11;;;;;;;13.98;9.98;;;4.60;47.10;;;-142.21;52.64;112049.66;5089776;28;20623;-79
2022/03/01 05:53:38;;;;;;;14.00;10.15;;;4.60;47.00;;;-142.21;52.14;112049.66;5054775;28;20716;-75
2022/03/01 05:56:06;;;;;;;12.27;9.35;;;4.50;47.10;;;-142.21;52.07;112049.66;5068693;28;20201;-74
2022/03/01 05:58:33;;;;;;;14.63;9.45;;;4.60;47.20;;;-142.21;51.86;112049.66;5082243;28;20247;-78
2022/03/01 06:01:00;;;;;;;12.40;8.77;;;4.50;46.90;;;-142.21;51.33;112049.66;5102615;28;20699;-75
2022/03/01 06:03:27;;;;;;;12.77;9.05;;;4.60;47.00;;;-142.21;52.37;112049.66;5092973;28;20201;-75
2022/03/01 06:05:55;;;;;;;14.10;9.63;;;4.60;47.00;;;-142.21;52.85;112049.66;5096278;28;20201;-77
2022/03/01 06:08:24;;;;;;;13.90;10.10;;;4.50;47.00;;;-142.21;54.15;112049.66;5089395;28;20669;-84
2022/03/01 06:10:57;;;;;;;14.25;9.27;;;4.60;47.30;;;-142.21;51.40;112049.66;5079985;28;20228;-82
2022/03/01 06:13:24;;;;;;;13.73;9.30;;;4.50;47.40;;;-142.21;52.94;112049.66;5094306;28;20228;-83
2022/03/01 06:15:52;;;;;;;12.68;9.43;;;4.40;47.50;;;-142.21;53.77;112049.66;5076897;28;20209;-81
2022/03/01 06:18:19;;;;;;;13.98;9.48;;;4.40;48.00;;;-142.21;53.93;112049.66;5071869;28;20685;-83
2022/03/01 06:20:46;;;;;;;14.75;9.20;;;4.50;47.50;;;-142.21;52.74;112049.66;5071339;28;20201;-81
2022/03/01 06:23:14;;;;;;;12.18;9.48;;;4.30;48.10;;;-142.21;51.73;112049.66;5060910;28;20673;-80
2022/03/01 06:25:44;;;;;;;12.38;9.90;;;4.40;47.50;;;-142.21;53.03;112049.66;5081088;28;20283;-77
2022/03/01 06:28:18;;;;;;;12.70;9.13;;;4.40;47.60;;;-142.21;52.49;112049.66;5079834;28;20751;-76
2022/03/01 06:30:46;;;;;;;12.73;9.73;;;4.40;47.50;;;-142.21;51.73;112049.66;5065763;28;20600;-78
2022/03/01 06:33:13;;;;;;;16.63;9.85;;;4.40;47.70;;;-142.21;51.77;112049.66;5068157;28;20236;-76
2022/03/01 06:35:41;;;;;;;12.07;9.45;;;4.60;47.30;;;-142.21;53.06;112049.66;5059845;28;20260;-82
2022/03/01 06:38:15;;;;;;;12.82;9.43;;;4.50;47.10;;;-142.21;52.46;112049.66;5086085;28;20260;-77
2022/03/01 06:40:51;;;;;;;13.93;9.88;;;4.50;47.20;;;-142.21;52.78;112049.66;5064762;28;20222;-79
2022/03/01 06:43:19;;;;;;;13.70;10.13;;;4.50;47.90;;;-142.21;52.89;112049.66;5087477;28;20239;-77
2022/03/01 06:45:46;;;;;;;11.40;8.93;;;4.50;47.40;;;-142.21;52.90;112049.66;5076989;28;20681;-78
2022/03/01 06:48:13;;;;;;;17.45;10.88;;;4.60;47.40;;;-142.21;53.00;112049.66;5069327;28;20198;-78
2022/03/01 06:50:41;;;;;;;17.77;12.38;;;4.50;47.50;;;-142.21;52.52;112049.66;5075318;28;20201;-77
2022/03/01 06:53:11;;;;;;;29.02;17.90;;;4.50;47.30;;;-142.21;53.36;112049.66;5075941;28;20676;-77
2022/03/01 06:55:42;;;;;;;20.02;14.15;;;4.40;47.70;;;-142.21;51.72;112049.66;5053939;28;20209;-78
2022/03/01 06:58:16;;;;;;;26.08;15.30;;;4.70;47.80;;;-142.21;51.98;112049.66;5057662;28;20221;-79
2022/03/01 07:00:44;;;;;;;20.25;13.15;;;4.70;47.50;;;-142.21;53.45;112049.66;5062546;28;20578;-77
2022/03/01 07:03:11;;;;;;;15.18;10.65;;;4.90;47.00;;;-142.21;52.08;112049.66;5059665;28;20298;-78
2022/03/01 07:05:38;;;;;;;16.48;11.20;;;5.10;46.40;;;-142.21;52.79;112049.66;5060473;28;20635;-77
2022/03/01 07:08:08;;;;;;;15.45;11.45;;;5.60;45.80;;;-142.21;51.77;112049.66;5073850;28;20280;-80
2022/03/01 07:10:35;;;;;;;15.50;11.50;;;5.70;45.40;;;-142.21;53.04;112049.66;5073340;28;20201;-79
2022/03/01 07:13:04;;;;;;;18.05;12.50;;;5.70;45.30;;;-142.21;50.84;112049.66;5071510;28;20251;-74
2022/03/01 07:15:33;;;;;;;16.88;12.88;;;5.70;45.40;;;-142.21;50.92;112049.66;5073383;28;20201;-77
2022/03/01 07:18:04;;;;;;;14.82;11.13;;;5.80;45.00;;;-142.21;49.64;112049.66;5073440;28;20288;-81
2022/03/01 07:20:36;;;;;;;14.63;10.80;;;5.70;44.60;;;-142.21;50.67;112049.66;5053538;28;20273;-80
2022/03/01 07:23:04;;;;;;;14.10;9.93;;;5.80;45.30;;;-142.21;50.07;112049.66;5053721;28;20241;-79
2022/03/01 07:25:31;;;;;;;14.40;10.10;;;5.90;45.00;;;-142.21;49.45;112049.66;5066279;28;20205;-79
2022/03/01 07:27:59;;;;;;;14.95;10.38;;;5.90;44.70;;;-142.21;50.32;112049.66;5073260;28;20601;-79
2022/03/01 07:30:28;;;;;;;18.23;11.10;;;5.60;45.00;;;-142.21;51.48;112049.66;5075203;28;20197;-79
2022/03/01 07:32:59;;;;;;;15.80;11.95;;;5.70;45.50;;;-142.21;52.22;112049.66;5077505;28;20284;-79
2022/03/01 07:35:27;;;;;;;14.02;10.57;;;6.00;45.20;;;-142.21;49.71;112049.66;5093330;28;20219;-80
2022/03/01 07:37:54;;;;;;;15.57;11.13;;;6.30;44.40;;;-142.21;49.66;112049.66;5093285;28;20295;-81
2022/03/01 07:40:24;;;;;;;14.57;11.30;;;6.30;44.10;;;-142.21;49.55;112049.66;5093526;28;20267;-79
2022/03/01 07:42:53;;;;;;;13.40;9.97;;;6.40;44.30;;;-142.21;48.44;112049.66;5076511;28;20455;-79
2022/03/01 07:45:26;;;;;;;13.88;10.77;;;6.40;44.10;;;-142.21;49.17;112049.66;5093378;28;20495;-79
2022/03/01 07:47:53;;;;;;;15.53;11.80;;;6.40;43.90;;;-142.21;49.20;112049.66;5094062;28;20272;-79
2022/03/01 07:50:23;;;;;;;15.43;10.75;;;6.60;43.40;;;-142.21;48.10;112049.66;5093535;28;20492;-78
2022/03/01 07:52:51;;;;;;;14.25;10.88;;;6.40;43.50;;;-142.21;47.36;112049.66;5093876;28;20236;-79
2022/03/01 07:55:18;;;;;;;14.60;10.93;;;6.60;43.50;;;-142.21;48.98;112049.66;5073796;28;20197;-79
2022/03/01 07:57:46;;;;;;;15.05;11.80;;;6.60;43.20;;;-142.21;47.09;112049.66;5073018;28;20255;-80
2022/03/01 08:00:14;;;;;;;12.40;10.53;;;6.70;43.50;;;-142.21;46.46;112049.66;5072675;28;20221;-78
2022/03/01 08:02:43;;;;;;;14.93;11.50;;;7.40;43.30;;;-142.21;46.79;112049.66;5071752;28;20451;-79
2022/03/01 08:05:12;;;;;;;12.37;10.23;;;8.00;41.80;;;-142.21;46.91;112049.66;5072975;28;20548;-78
2022/03/01 08:07:41;;;;;;;13.17;9.93;;;8.60;41.00;;;-142.21;46.12;112049.66;5073122;28;20795;-79
2022/03/01 08:10:10;;;;;;;12.63;10.40;;;8.80;40.20;;;-142.21;45.97;112049.66;5054373;28;20475;-78
2022/03/01 08:12:38;;;;;;;13.67;11.90;;;8.90;39.30;;;-142.21;45.18;112049.66;5038712;28;20471;-79
2022/03/01 08:15:06;;;;;;;13.37;10.47;;;8.80;39.60;;;-142.21;44.72;112049.66;5072829;28;20479;-79
2022/03/01 08:17:33;;;;;;;12.77;10.33;;;8.80;39.10;;;-142.21;44.21;112049.66;5072394;28;20526;-79
2022/03/01 08:20:01;;;;;;;12.90;10.50;;;8.80;39.30;;;-142.21;45.02;112049.66;5072872;28;20578;-79
2022/03/01 08:22:28;;;;;;;14.67;10.80;;;8.80;39.50;;;-142.21;45.21;112049.66;5072581;28;20455;-79
2022/03/01 08:24:56;;;;;;;12.80;9.77;;;8.80;39.40;;;-142.21;43.94;112049.66;5072786;28;20455;-79
2022/03/01 08:27:24;;;;;;;16.50;10.10;;;9.10;38.90;;;-142.21;43.77;112049.66;5072166;28;20443;-78
2022/03/01 08:29:52;;;;;;;12.30;9.80;;;9.20;38.90;;;-142.21;43.26;112049.66;5072527;28;20858;-79
2022/03/01 08:32:20;;;;;;;13.90;9.80;;;9.20;38.60;;;-142.21;43.30;112049.66;5072415;28;20514;-79
2022/03/01 08:34:47;;;;;;;13.63;10.43;;;9.30;39.00;;;-142.21;42.82;112049.66;5072119;28;20451;-78
2022/03/01 08:37:14;;;;;;;12.00;9.27;;;9.40;38.80;;;-142.21;42.78;112049.66;5073112;28;20541;-78
2022/03/01 08:39:41;;;;;;;11.57;9.60;;;9.20;38.00;;;-142.21;42.78;112049.66;5071894;28;20843;-78
2022/03/01 08:42:10;;;;;;;12.40;9.30;;;9.00;38.50;;;-142.21;43.10;112049.66;5072584;28;20534;-78
2022/03/01 08:44:37;;;;;;;12.07;9.17;;;9.00;38.40;;;-142.21;42.50;112049.66;5071974;28;20542;-78
2022/03/01 08:47:05;;;;;;;14.03;9.57;;;8.90;38.30;;;-142.21;42.33;112049.66;5072637;28;20550;-78
2022/03/01 08:49:32;;;;;;;12.07;9.27;;;8.90;38.10;;;-142.21;41.66;112049.66;5072719;28;20526;-78
2022/03/01 08:52:00;;;;;;;11.47;9.37;;;8.90;38.30;;;-142.21;41.64;112049.66;5072454;28;20443;-78
2022/03/01 08:54:28;;;;;;;12.07;9.40;;;9.10;38.20;;;-142.21;40.66;112049.66;5072329;28;20490;-79
2022/03/01 08:56:55;;;;;;;12.50;9.70;;;9.10;37.30;;;-142.21;40.95;112049.66;5071818;28;20943;-78
2022/03/01 08:59:24;;;;;;;10.33;9.17;;;9.50;38.00;;;-142.21;40.71;112049.66;5072191;28;20511;-79
2022/03/01 09:01:51;;;;;;;11.10;8.90;;;10.10;36.50;;;-142.21;40.39;112049.66;5053953;28;20795;-78
2022/03/01 09:04:19;;;;;;;11.97;9.93;;;10.40;35.30;;;-142.21;39.99;112049.66;5072312;28;20912;-78
2022/03/01 09:06:46;;;;;;;11.30;9.53;;;10.70;35.00;;;-142.21;41.18;112049.66;5071768;28;20497;-78
2022/03/01 09:09:14;;;;;;;11.37;10.07;;;10.90;34.40;;;-142.21;39.84;112049.66;5072179;28;20535;-77
2022/03/01 09:11:42;;;;;;;13.00;10.33;;;11.00;34.30;;;-142.21;39.90;112049.66;5072548;28;20505;-78
2022/03/01 09:14:09;;;;;;;12.00;9.97;;;11.10;33.80;;;-142.21;38.59;112049.66;5071918;28;20890;-78
2022/03/01 09:16:39;;;;;;;13.07;10.17;;;11.10;33.60;;;-142.21;38.94;112049.66;5054455;28;20479;-77
2022/03/01 09:19:08;;;;;;;11.07;9.53;;;11.00;33.20;;;-142.21;38.65;112049.66;5020568;28;20471;-78
2022/03/01 09:21:36;;;;;;;11.67;9.50;;;11.00;33.20;;;-142.21;38.67;112049.66;5073472;28;20443;-78
2022/03/01 09:24:03;;;;;;;11.47;9.70;;;11.30;33.40;;;-142.21;38.48;112049.66;5075757;28;20435;-78
2022/03/01 09:26:30;;;;;;;11.53;9.63;;;12.10;33.10;;;-142.21;37.34;112049.66;5076640;28;20832;-79
2022/03/01 09:28:57;;;;;;;11.60;9.50;;;13.40;31.70;;;-142.21;37.06;112049.66;5076377;28;20444;-78
2022/03/01 09:31:25;;;;;;;10.97;9.70;;;14.30;29.70;;;-142.21;37.45;112049.66;5075961;28;20525;-79
2022/03/01 09:33:53;;;;;;;10.47;9.47;;;15.30;29.90;;;-142.21;36.49;112049.66;5075904;28;20483;-78
2022/03/01 09:36:22;;;;;;;11.73;9.77;;;16.50;28.40;;;-142.21;37.67;112049.66;5075137;28;20300;-79
2022/03/01 09:38:50;;;;;;;11.60;9.03;;;17.10;28.30;;;-142.21;36.01;112049.66;5075800;28;20264;-79
2022/03/01 09:41:18;;;;;;;11.13;9.87;;;17.80;26.80;;;-142.21;35.44;112049.66;5075371;28;20267;-79
2022/03/01 09:43:45;;;;;;;11.03;9.93;;;18.10;25.50;;;-142.21;35.93;112049.66;5075648;28;20251;-78
2022/03/01 09:46:12;;;;;;;12.80;9.60;;;18.70;26.10;;;-142.21;34.64;112049.66;5074773;28;20212;-76
2022/03/01 09:48:40;;;;;;;11.40;10.20;;;19.40;25.60;;;-142.21;35.59;112049.66;5076078;28;20256;-79
2022/03/01 09:51:09;;;;;;;11.97;10.00;;;20.10;25.00;;;-142.21;34.96;112049.66;5076038;28;20315;-78
2022/03/01 09:53:41;;;;;;;9.97;8.97;;;20.20;24.50;;;-142.21;34.56;112049.66;5075298;28;20233;-76
2022/03/01 09:56:10;;;;;;;11.00;9.73;;;20.40;24.30;;;-142.21;33.73;112049.66;5075700;28;20272;-80
2022/03/01 09:58:38;;;;;;;10.83;9.73;;;20.50;23.50;;;-142.21;33.71;112049.66;5054788;28;20240;-78
2022/03/01 10:01:06;;;;;;;10.63;9.57;;;20.40;23.70;;;-142.21;34.59;112049.66;5055565;28;20579;-79
2022/03/01 10:03:38;;;;;;;10.40;9.30;;;21.10;24.40;;;-142.21;34.75;112049.66;5054728;28;20237;-78
2022/03/01 10:06:13;;;;;;;10.40;9.43;;;21.50;24.00;;;-142.21;32.75;112049.66;5055388;28;20550;-80
2022/03/01 10:08:41;;;;;;;10.77;9.77;;;21.80;22.90;;;-142.21;31.01;112049.66;5054908;28;20189;-80
2022/03/01 10:11:10;;;;;;;10.77;9.67;;;21.80;23.20;;;-142.21;30.09;112049.66;5055161;28;20201;-81
2022/03/01 10:13:41;;;;;;;10.63;9.60;;;22.00;22.90;;;-142.21;30.40;112049.66;5054326;28;20670;-76
2022/03/01 10:16:13;;;;;;;10.67;9.57;;;22.40;22.20;;;-142.21;29.24;112049.66;5055114;28;20277;-78
2022/03/01 10:18:42;;;;;;;10.60;9.60;;;22.80;22.70;;;-142.21;28.24;112049.66;5055034;28;20617;-79
2022/03/01 10:21:14;;;;;;;11.00;9.90;;;23.30;22.30;;;-142.21;28.25;112049.66;5055002;28;20314;-79
2022/03/01 10:23:52;;;;;;;10.60;9.50;;;23.30;21.70;;;-142.21;27.74;112049.66;5054511;28;20208;-79
2022/03/01 10:26:23;;;;;;;10.87;9.83;;;23.20;21.50;;;-142.21;25.74;112049.66;5055033;28;20286;-79
2022/03/01 10:28:51;;;;;;;12.47;10.30;;;23.50;21.70;;;-142.21;25.02;112049.66;5092258;28;20243;-78
2022/03/01 10:31:22;;;;;;;9.77;8.87;;;24.10;21.70;;;-142.21;24.53;112049.66;5095018;28;20206;-77